Talkeetna, Alaska
Current Conditions -  °F | °C
As of 8:53 AM on Sunday 21 Dec 2014 (Local Time) from PATK Reporting Station
Overcast Overcast  
Wind Chill: 18°   Ceiling: 6500
Heat Index: 26°   Visibility: 10mi
Dew Point: 11°   Wind: 8mph
Humidity: 53%   Direction: 30°NNE
Pressure: 29.17"   Gusts: NA
Location:  62.31°N, 150.11°W
Report Text: PATK 211753Z 03007KT 10SM OVC065 M03/M12 A2917 RMK AO2 SLP883 T10331117 11022 21039 53025
Loading
Personal Weather Stations






























Interactive Weather Map New forecast layout! Learn more

10-Day Weather Forecast

Advertisements
Track Severe Weather on mobile